Time;durP1;ratioP1;P1;durP2;ratioP2;P2;SDS_P1;SDS_P2;PMS_P1;PMS_P2;Temp;Humidity;BMP_temperature;BMP_pressure;BME280_temperature;BME280_humidity;BME280_pressure;Samples;Min_cycle;Max_cycle;Signal;HPM_P1;HPM_P2
2022/12/26 00:01:29;;;;;;;22.58;13.00;;;;;;;-140.72;100.00;53245.22;5127905;27;20030;-67
2022/12/26 00:03:55;;;;;;;22.02;12.23;;;;;;;-140.72;100.00;53237.09;5131722;27;20058;-69
2022/12/26 00:06:23;;;;;;;25.05;13.63;;;;;;;-140.72;100.00;53251.31;5131502;27;20107;-67
2022/12/26 00:08:49;;;;;;;16.33;12.15;;;;;;;-140.72;100.00;53257.38;5128676;27;20454;-69
2022/12/26 00:11:15;;;;;;;22.15;12.10;;;;;;;-140.72;100.00;53257.38;5125212;27;20026;-67
2022/12/26 00:13:41;;;;;;;20.20;12.77;;;;;;;-140.72;100.00;53224.91;5126215;27;20029;-69
2022/12/26 00:16:18;;;;;;;17.48;9.35;;;;;;;-140.72;100.00;53208.69;5126183;27;20027;-68
2022/12/26 00:18:44;;;;;;;19.08;11.48;;;;;;;-140.72;100.00;53241.16;5118848;27;20106;-69
2022/12/26 00:21:12;;;;;;;19.65;11.77;;;;;;;-140.72;100.00;53241.16;5112856;27;20119;-68
2022/12/26 00:23:38;;;;;;;20.13;12.45;;;;;;;-140.72;100.00;53228.97;5119698;27;20051;-68
2022/12/26 00:26:09;;;;;;;24.40;13.85;;;;;;;-140.72;100.00;53263.47;5115893;27;20416;-68
2022/12/26 00:28:35;;;;;;;22.30;13.98;;;;;;;-140.72;100.00;53216.78;5129181;27;20019;-67
2022/12/26 00:31:05;;;;;;;21.52;13.73;;;;;;;-140.72;100.00;53265.50;5119029;27;20103;-68
2022/12/26 00:33:32;;;;;;;;;;;;;;;-140.72;100.00;53263.47;5121171;27;20023;-67
2022/12/26 00:36:06;;;;;;;21.30;11.48;;;;;;;-140.72;100.00;53226.94;5121342;27;19907;-67
2022/12/26 00:38:34;;;;;;;22.25;13.55;;;;;;;-140.72;100.00;53224.91;5126741;27;20152;-67
2022/12/26 00:41:00;;;;;;;23.05;14.25;;;;;;;-140.72;100.00;53263.47;5123264;27;20022;-67
2022/12/26 00:43:25;;;;;;;20.52;13.93;;;;;;;-140.72;100.00;53285.81;5126540;27;20382;-67
2022/12/26 00:45:51;;;;;;;20.30;11.40;;;;;;;-140.72;100.00;53226.94;5120433;27;20028;-67
2022/12/26 00:48:17;;;;;;;17.65;12.65;;;;;;;-140.72;100.00;53263.47;5119722;27;20132;-67
2022/12/26 00:50:43;;;;;;;23.33;12.00;;;;;;;-140.72;100.00;53245.22;5117295;27;20107;-71
2022/12/26 00:53:08;;;;;;;20.27;12.80;;;;;;;-140.72;100.00;53295.94;5120345;27;20065;-68
2022/12/26 00:55:33;;;;;;;23.42;12.73;;;;;;;-140.72;100.00;53237.09;5120793;27;20102;-67
2022/12/26 00:57:59;;;;;;;22.80;14.55;;;;;;;-140.72;100.00;53267.53;5123183;27;20391;-68
2022/12/26 01:00:24;;;;;;;22.08;13.10;;;;;;;-140.72;100.00;53233.03;5130840;27;20387;-68
2022/12/26 01:02:50;;;;;;;18.90;12.98;;;;;;;-140.72;100.00;53263.47;5121600;27;20084;-68
2022/12/26 01:05:15;;;;;;;19.38;12.93;;;;;;;-140.72;100.00;53263.47;5125901;27;20023;-67
2022/12/26 01:07:41;;;;;;;18.30;13.70;;;;;;;-140.72;100.00;53259.41;5120902;27;20034;-68
2022/12/26 01:10:11;;;;;;;20.48;14.15;;;;;;;-140.72;100.00;53255.34;5126068;27;20023;-66
2022/12/26 01:12:36;;;;;;;21.10;14.77;;;;;;;-140.72;100.00;53263.47;5126721;27;20034;-68
2022/12/26 01:15:03;;;;;;;19.85;14.57;;;;;;;-140.72;100.00;53235.06;5129457;27;20079;-68
2022/12/26 01:17:29;;;;;;;18.52;13.15;;;;;;;-140.72;100.00;53224.91;5131288;27;20062;-68
2022/12/26 01:19:55;;;;;;;23.33;14.45;;;;;;;-140.72;100.00;53247.25;5118140;27;20050;-67
2022/12/26 01:22:25;;;;;;;25.08;14.23;;;;;;;-140.72;100.00;53222.88;5119577;27;20110;-67
2022/12/26 01:24:59;;;;;;;19.13;13.60;;;;;;;-140.72;100.00;53269.56;5126139;27;20294;-69
2022/12/26 01:27:25;;;;;;;22.30;12.93;;;;;;;-140.72;100.00;53226.94;5122632;27;20037;-68
2022/12/26 01:29:54;;;;;;;20.20;12.85;;;;;;;-140.72;100.00;53249.28;5120939;27;20024;-68
2022/12/26 01:32:20;;;;;;;17.90;12.23;;;;;;;-140.72;100.00;53226.94;5115157;27;20431;-67
2022/12/26 01:34:46;;;;;;;17.00;11.43;;;;;;;-140.72;100.00;53247.25;5122581;27;20091;-68
2022/12/26 01:37:15;;;;;;;15.40;11.88;;;;;;;-140.72;100.00;53291.88;5118267;27;20063;-69
2022/12/26 01:39:41;;;;;;;19.38;11.63;;;;;;;-140.72;100.00;53253.31;5118442;27;20380;-67
2022/12/26 01:42:19;;;;;;;20.35;11.52;;;;;;;-140.72;100.00;53259.41;5118759;27;20027;-69
2022/12/26 01:44:57;;;;;;;14.18;10.07;;;;;;;-140.72;100.00;53224.91;5118521;27;20023;-67
2022/12/26 01:47:29;;;;;;;15.15;10.73;;;;;;;-140.72;100.00;53271.59;5114622;27;20033;-68
2022/12/26 01:49:55;;;;;;;17.58;12.07;;;;;;;-140.72;100.00;53283.78;5113988;27;20043;-66
2022/12/26 01:52:31;;;;;;;16.13;10.80;;;;;;;-140.72;100.00;53247.25;5124608;27;20023;-67
2022/12/26 01:54:58;;;;;;;13.60;9.68;;;;;;;-140.72;100.00;53251.31;5113467;27;20099;-69
2022/12/26 01:57:34;;;;;;;16.58;9.68;;;;;;;-140.72;100.00;53200.56;5116465;27;20024;-67
2022/12/26 02:00:00;;;;;;;17.52;10.18;;;;;;;-140.72;100.00;53204.63;5126439;27;20034;-67
2022/12/26 02:02:28;;;;;;;15.32;9.35;;;;;;;-140.72;100.00;53237.09;5121831;27;20371;-68
2022/12/26 02:07:44;;;;;;;12.93;8.55;;;;;;;-140.72;100.00;53224.91;5122112;27;20050;-66
2022/12/26 02:10:21;;;;;;;17.52;11.00;;;;;;;-140.72;100.00;53235.06;5123192;27;20068;-69
2022/12/26 02:12:48;;;;;;;13.63;9.13;;;;;;;-140.72;100.00;53263.47;5128349;27;20051;-68
2022/12/26 02:15:16;;;;;;;16.42;10.02;;;;;;;-140.72;100.00;53257.38;5121700;27;20032;-68
2022/12/26 02:17:41;;;;;;;10.82;8.52;;;;;;;-140.72;100.00;53237.09;5118468;27;20434;-68
2022/12/26 02:20:36;;;;;;;15.50;10.25;;;;;;;-140.72;100.00;53245.22;5129272;27;20073;-67
2022/12/26 02:23:10;;;;;;;14.55;9.93;;;;;;;-140.72;100.00;53235.06;5106980;27;20055;-67
2022/12/26 02:26:27;;;;;;;12.55;8.85;;;;;;;-140.72;100.00;53245.22;5120992;27;20513;-69
2022/12/26 02:29:11;;;;;;;12.02;7.55;;;;;;;-140.72;100.00;53255.34;5085410;27;20115;-68
2022/12/26 02:32:05;;;;;;;15.23;8.82;;;;;;;-140.72;100.00;53224.91;5110491;28;20027;-67
2022/12/26 02:34:53;;;;;;;12.20;9.27;;;;;;;-140.72;100.00;53222.88;5113666;27;20035;-67
2022/12/26 02:37:45;;;;;;;15.73;10.30;;;;;;;-140.72;100.00;53259.41;5117174;27;20019;-67
2022/12/26 02:40:41;;;;;;;13.60;9.15;;;;;;;-140.72;100.00;53285.81;5122752;27;20098;-69
2022/12/26 02:43:22;;;;;;;14.43;8.70;;;;;;;-140.72;100.00;53198.53;5114230;27;20387;-66
2022/12/26 02:49:20;;;;;;;14.38;9.60;;;;;;;-140.72;100.00;53285.81;5124589;27;20047;-67
2022/12/26 03:17:18;;;;;;;13.82;10.98;;;;;;;-140.72;100.00;53261.44;5115403;28;20531;-67
2022/12/26 03:18:18;;;;;;;14.77;10.40;;;;;;;-140.72;100.00;53259.41;5116587;28;20031;-67
2022/12/26 03:20:44;;;;;;;12.82;9.52;;;;;;;-140.72;100.00;53263.47;5119021;28;20035;-69
2022/12/26 03:23:14;;;;;;;14.60;11.18;;;;;;;-140.72;100.00;53267.53;5122888;28;20354;-67
2022/12/26 03:28:43;;;;;;;12.63;8.15;;;;;;;-140.72;100.00;53231.00;5114945;28;20092;-68
2022/12/26 03:31:13;;;;;;;15.05;10.15;;;;;;;-140.72;100.00;53243.19;5117575;28;20087;-67
2022/12/26 03:36:34;;;;;;;14.75;9.05;;;;;;;-140.72;100.00;53271.59;5129952;27;19934;-67
2022/12/26 03:39:15;;;;;;;13.82;8.48;;;;;;;-140.72;100.00;53275.66;5124595;27;20027;-67
2022/12/26 04:19:24;;;;;;;9.15;5.95;;;;;;;-140.72;100.00;53241.16;5123537;27;20110;-67
2022/12/26 04:44:31;;;;;;;7.20;4.60;;;;;;;-140.72;100.00;53291.88;5124404;27;20042;-66
2022/12/26 04:46:56;;;;;;;11.02;4.75;;;;;;;-140.72;100.00;53247.25;5125812;27;20435;-68
2022/12/26 04:52:11;;;;;;;6.97;4.47;;;;;;;-140.72;100.00;53295.94;5115629;27;20081;-67
2022/12/26 04:54:40;;;;;;;6.13;3.50;;;;;;;-140.72;100.00;53285.81;5126198;27;20455;-68
2022/12/26 04:57:06;;;;;;;3.97;3.03;;;;;;;-140.72;100.00;53251.31;5125689;27;20023;-67
2022/12/26 04:59:32;;;;;;;5.25;3.53;;;;;;;-140.72;100.00;53255.34;5124274;27;20598;-65
2022/12/26 05:10:18;;;;;;;;;;;;;;;-140.72;100.00;53300.00;5119496;27;20402;-68
2022/12/26 05:12:43;;;;;;;4.28;3.25;;;;;;;-140.72;100.00;53297.97;5118603;27;19957;-67
2022/12/26 05:15:09;;;;;;;5.15;2.97;;;;;;;-140.72;100.00;53312.19;5100836;27;20043;-67
2022/12/26 05:28:40;;;;;;;5.18;2.55;;;;;;;-140.72;100.00;53231.00;5116151;27;20043;-67
2022/12/26 05:31:07;;;;;;;3.58;2.15;;;;;;;-140.72;100.00;53310.16;5124979;27;20023;-67
2022/12/26 05:36:19;;;;;;;4.63;2.97;;;;;;;-140.72;100.00;53269.56;5128111;27;20074;-67
2022/12/26 05:38:44;;;;;;;6.25;3.63;;;;;;;-140.72;100.00;53281.75;5121741;27;20103;-66
2022/12/26 05:41:09;;;;;;;5.60;3.30;;;;;;;-140.72;100.00;53267.53;5124104;27;20118;-67
2022/12/26 05:43:35;;;;;;;5.47;3.28;;;;;;;-140.72;100.00;53295.94;5125216;27;20049;-67
2022/12/26 05:46:00;;;;;;;4.45;3.03;;;;;;;-140.72;100.00;53257.38;5121217;27;20369;-67
2022/12/26 05:48:26;;;;;;;5.53;2.53;;;;;;;-140.72;100.00;53239.13;5115667;27;20230;-67
2022/12/26 05:50:51;;;;;;;4.63;2.42;;;;;;;-140.72;100.00;53277.69;5127649;27;20114;-66
2022/12/26 05:53:17;;;;;;;5.90;3.50;;;;;;;-140.72;100.00;53263.47;5117298;27;20043;-67
2022/12/26 05:55:42;;;;;;;4.65;3.88;;;;;;;-140.72;100.00;53279.72;5118084;27;20051;-66
2022/12/26 05:58:07;;;;;;;6.10;3.70;;;;;;;-140.72;100.00;53265.50;5125836;27;20037;-67
2022/12/26 06:00:33;;;;;;;6.07;3.92;;;;;;;-140.72;100.00;53287.84;5125113;27;20028;-67
2022/12/26 06:03:00;;;;;;;4.25;2.83;;;;;;;-140.72;100.00;53231.00;5127546;27;20027;-67
2022/12/26 06:05:26;;;;;;;4.65;2.40;;;;;;;-140.72;100.00;53247.25;5127816;27;20023;-66
2022/12/26 06:07:52;;;;;;;8.63;3.92;;;;;;;-140.72;100.00;53283.78;5127009;27;20379;-70
2022/12/26 06:10:17;;;;;;;8.10;4.22;;;;;;;-140.72;100.00;53261.44;5124587;27;20024;-67
2022/12/26 06:12:43;;;;;;;5.53;3.65;;;;;;;-140.72;100.00;53243.19;5114776;27;20069;-67
2022/12/26 06:15:09;;;;;;;6.75;3.85;;;;;;;-140.72;100.00;53265.50;5125606;27;20030;-67
2022/12/26 06:17:34;;;;;;;7.50;3.53;;;;;;;-140.72;100.00;53277.69;5122815;27;20027;-66
2022/12/26 06:19:59;;;;;;;5.63;3.00;;;;;;;-140.72;100.00;53247.25;5110817;27;20490;-67
2022/12/26 06:22:27;;;;;;;4.50;2.85;;;;;;;-140.72;100.00;53279.72;5115268;27;20228;-67
2022/12/26 06:24:53;;;;;;;8.20;3.70;;;;;;;-140.72;100.00;53255.34;5119836;27;20031;-67
2022/12/26 06:27:18;;;;;;;4.75;3.03;;;;;;;-140.72;100.00;53285.81;5116751;27;20079;-67
2022/12/26 06:29:44;;;;;;;5.38;3.42;;;;;;;-140.72;100.00;53253.31;5112169;27;20083;-69
2022/12/26 06:32:09;;;;;;;4.55;3.30;;;;;;;-140.72;100.00;53255.34;5117329;27;20421;-67
2022/12/26 06:34:35;;;;;;;9.02;3.63;;;;;;;-140.72;100.00;53255.34;5115582;27;20096;-67
2022/12/26 06:37:00;;;;;;;5.35;3.40;;;;;;;-140.72;100.00;53271.59;5121553;27;20023;-67
2022/12/26 06:39:26;;;;;;;6.35;3.30;;;;;;;-140.72;100.00;53289.88;5128128;27;20038;-67
2022/12/26 06:41:51;;;;;;;4.88;3.33;;;;;;;-140.72;100.00;53279.72;5123118;27;20015;-67
2022/12/26 06:44:16;;;;;;;4.13;2.85;;;;;;;-140.72;100.00;53279.72;5128717;27;20050;-67
2022/12/26 06:46:42;;;;;;;3.88;2.80;;;;;;;-140.72;100.00;53275.66;5121969;27;20111;-66
2022/12/26 06:49:07;;;;;;;4.75;2.25;;;;;;;-140.72;100.00;53231.00;5118756;27;20050;-67
2022/12/26 06:51:34;;;;;;;5.45;2.97;;;;;;;-140.72;100.00;53233.03;5122038;27;20065;-67
2022/12/26 06:54:03;;;;;;;6.03;2.65;;;;;;;-140.72;100.00;53302.03;5121571;27;20034;-67
2022/12/26 06:56:31;;;;;;;3.17;2.20;;;;;;;-140.72;100.00;53281.75;5119042;27;20033;-66
2022/12/26 06:59:01;;;;;;;5.05;2.72;;;;;;;-140.72;100.00;53271.59;5119133;27;20062;-68
2022/12/26 07:01:28;;;;;;;5.22;2.20;;;;;;;-140.72;100.00;53218.81;5119212;27;20032;-69
2022/12/26 07:03:54;;;;;;;3.83;2.33;;;;;;;-140.72;100.00;53233.03;5116258;27;20023;-66
2022/12/26 07:06:26;;;;;;;3.35;2.53;;;;;;;-140.72;100.00;53259.41;5121891;27;20039;-66
2022/12/26 07:08:53;;;;;;;3.42;2.08;;;;;;;-140.72;100.00;53228.97;5119326;27;20502;-67
2022/12/26 07:11:27;;;;;;;4.47;2.58;;;;;;;-140.72;100.00;53275.66;5126393;27;20019;-66
2022/12/26 07:13:53;;;;;;;4.70;2.20;;;;;;;-140.72;100.00;53267.53;5123560;28;20073;-66
2022/12/26 07:16:19;;;;;;;3.17;2.38;;;;;;;-140.72;100.00;53243.19;5121974;28;20023;-66
2022/12/26 07:18:44;;;;;;;2.47;1.70;;;;;;;-140.72;100.00;53304.06;5120761;28;20447;-66
2022/12/26 07:21:13;;;;;;;5.15;2.88;;;;;;;-140.72;100.00;53259.41;5116956;28;20034;-69
2022/12/26 07:23:39;;;;;;;2.53;2.03;;;;;;;-140.72;100.00;53235.06;5118488;28;20374;-67
2022/12/26 07:26:05;;;;;;;4.15;1.83;;;;;;;-140.72;100.00;53251.31;5121507;28;20019;-66
2022/12/26 07:28:30;;;;;;;5.10;2.55;;;;;;;-140.72;100.00;53226.94;5116466;28;20439;-66
2022/12/26 07:30:59;;;;;;;2.05;1.50;;;;;;;-140.72;100.00;53241.16;5121526;28;20047;-67
2022/12/26 07:33:26;;;;;;;3.17;1.65;;;;;;;-140.72;100.00;53226.94;5117743;28;20019;-65
2022/12/26 07:35:51;;;;;;;2.65;2.03;;;;;;;-140.72;100.00;53218.81;5122771;28;20399;-68
2022/12/26 07:38:17;;;;;;;5.47;2.10;;;;;;;-140.72;100.00;53265.50;5121275;28;20027;-66
2022/12/26 07:40:42;;;;;;;3.08;1.30;;;;;;;-140.72;100.00;53259.41;5112161;28;20059;-65
2022/12/26 07:43:07;;;;;;;5.28;2.40;;;;;;;-140.72;100.00;53247.25;5116105;28;20019;-65
2022/12/26 07:45:33;;;;;;;2.50;1.50;;;;;;;-140.72;100.00;53243.19;5122489;28;20023;-66
2022/12/26 07:47:58;;;;;;;2.92;1.55;;;;;;;-140.72;100.00;53224.91;5122386;28;20073;-65
2022/12/26 07:50:26;;;;;;;3.13;1.92;;;;;;;-140.72;100.00;53271.59;5124101;28;20050;-66
2022/12/26 07:52:51;;;;;;;3.78;2.55;;;;;;;-140.72;100.00;53281.75;5125648;28;20119;-65
2022/12/26 07:55:17;;;;;;;3.30;2.25;;;;;;;-140.72;100.00;53218.81;5122495;28;20940;-65
2022/12/26 07:57:43;;;;;;;3.10;2.15;;;;;;;-140.72;100.00;53277.69;5121770;28;20023;-65
2022/12/26 08:00:10;;;;;;;2.50;1.77;;;;;;;-140.72;100.00;53261.44;5116561;28;20375;-66
2022/12/26 08:02:35;;;;;;;5.50;2.05;;;;;;;-140.72;100.00;53271.59;5119899;28;20114;-64
2022/12/26 08:05:01;;;;;;;5.97;2.05;;;;;;;-140.72;100.00;53251.31;5126182;28;20464;-65
2022/12/26 08:07:26;;;;;;;5.38;2.28;;;;;;;-140.72;100.00;53210.72;5127394;28;20067;-67
2022/12/26 08:09:51;;;;;;;3.65;2.13;;;;;;;-140.72;100.00;53206.66;5119764;28;20126;-65
2022/12/26 08:12:23;;;;;;;4.93;2.92;;;;;;;-140.72;100.00;53257.38;5118416;28;20080;-65
2022/12/26 08:14:48;;;;;;;5.90;1.60;;;;;;;-140.72;100.00;53245.22;5114298;28;20103;-66
2022/12/26 08:17:14;;;;;;;3.20;2.00;;;;;;;-140.72;100.00;53224.91;5112898;28;20511;-67
2022/12/26 08:19:39;;;;;;;4.20;2.45;;;;;;;-140.72;100.00;53231.00;5118895;27;20378;-65
2022/12/26 08:22:05;;;;;;;3.70;2.08;;;;;;;-140.72;100.00;53275.66;5125883;27;20027;-65
2022/12/26 08:24:30;;;;;;;6.13;1.75;;;;;;;-140.72;100.00;53202.59;5122469;27;20467;-65
2022/12/26 08:26:56;;;;;;;2.63;1.70;;;;;;;-140.72;100.00;53198.53;5121389;27;20482;-68
2022/12/26 08:29:21;;;;;;;5.25;2.30;;;;;;;-140.72;100.00;53218.81;5128095;27;20039;-65
2022/12/26 08:31:47;;;;;;;9.77;2.90;;;;;;;-140.72;100.00;53247.25;5117715;27;20027;-65
2022/12/26 08:34:12;;;;;;;4.30;2.42;;;;;;;-140.72;100.00;53210.72;5123068;27;20056;-67
2022/12/26 08:36:38;;;;;;;3.15;2.50;;;;;;;-140.72;100.00;53257.38;5119385;27;20165;-67
2022/12/26 08:39:04;;;;;;;4.75;2.20;;;;;;;-140.72;100.00;53251.31;5127360;27;20064;-67
2022/12/26 08:41:29;;;;;;;3.15;2.10;;;;;;;-140.72;100.00;53226.94;5107817;27;20130;-66
2022/12/26 08:43:55;;;;;;;4.30;1.92;;;;;;;-140.72;100.00;53257.38;5127532;27;20023;-66
2022/12/26 08:46:21;;;;;;;2.35;1.65;;;;;;;-140.72;100.00;53281.75;5128255;27;20058;-69
2022/12/26 08:48:47;;;;;;;4.30;2.00;;;;;;;-140.72;100.00;53255.34;5126281;27;20486;-67
2022/12/26 08:51:18;;;;;;;2.75;1.77;;;;;;;-140.72;100.00;53267.53;5127967;27;20583;-70
2022/12/26 08:53:45;;;;;;;2.53;1.05;;;;;;;-140.72;100.00;53226.94;5131072;27;20031;-67
2022/12/26 08:56:13;;;;;;;6.32;0.90;;;;;;;-140.72;100.00;53243.19;5127497;27;20031;-68
2022/12/26 08:58:39;;;;;;;4.10;1.02;;;;;;;-140.72;100.00;53255.34;5127021;27;20463;-65
2022/12/26 09:01:07;;;;;;;4.90;1.27;;;;;;;-140.72;100.00;53233.03;5123675;27;20073;-68
2022/12/26 09:03:32;;;;;;;3.97;1.38;;;;;;;-140.72;100.00;53249.28;5128211;27;20390;-65
2022/12/26 09:06:01;;;;;;;2.15;0.88;;;;;;;-140.72;100.00;53287.84;5125655;27;20039;-67
2022/12/26 09:08:30;;;;;;;2.63;1.05;;;;;;;-140.72;100.00;53265.50;5127366;27;20663;-68
2022/12/26 09:11:14;;;;;;;7.97;1.23;;;;;;;-140.72;100.00;53249.28;5128886;27;20026;-66
2022/12/26 09:13:40;;;;;;;2.75;1.35;;;;;;;-140.72;100.00;53257.38;5125281;27;20027;-66
2022/12/26 09:16:18;;;;;;;1.98;0.95;;;;;;;-140.72;100.00;53269.56;5128548;27;20118;-65
2022/12/26 09:18:51;;;;;;;5.22;0.88;;;;;;;-140.72;100.00;53271.59;5126380;27;20378;-67
2022/12/26 09:21:16;;;;;;;7.80;1.40;;;;;;;-140.72;100.00;53263.47;5124997;27;20026;-67
2022/12/26 09:23:42;;;;;;;1.67;0.65;;;;;;;-140.72;100.00;53212.75;5125167;27;20091;-66
2022/12/26 09:26:13;;;;;;;2.22;1.25;;;;;;;-140.72;100.00;53275.66;5124407;27;20039;-66
2022/12/26 09:28:44;;;;;;;9.95;1.38;;;;;;;-140.72;100.00;53285.81;5126879;27;20486;-67
2022/12/26 09:31:12;;;;;;;4.30;1.00;;;;;;;-140.72;100.00;53255.34;5122788;27;20026;-65
2022/12/26 09:33:38;;;;;;;5.60;0.95;;;;;;;-140.72;100.00;53247.25;5126345;27;20035;-66
2022/12/26 09:36:05;;;;;;;3.47;0.77;;;;;;;-140.72;100.00;53275.66;5126370;27;20019;-66
2022/12/26 09:38:31;;;;;;;6.40;1.25;;;;;;;-140.72;100.00;53263.47;5128117;27;20134;-65
2022/12/26 09:41:14;;;;;;;2.10;1.23;;;;;;;-140.72;100.00;53271.59;5124096;27;20440;-67
2022/12/26 09:44:07;;;;;;;6.22;1.05;;;;;;;-140.72;100.00;53255.34;5127973;27;20459;-67
2022/12/26 09:47:10;;;;;;;1.52;0.70;;;;;;;-140.72;100.00;53255.34;5124268;27;20039;-65
2022/12/26 09:49:56;;;;;;;3.80;1.48;;;;;;;-140.72;100.00;53263.47;5125772;27;20122;-66
2022/12/26 09:52:46;;;;;;;2.75;1.42;;;;;;;-140.72;100.00;53243.19;5124936;27;20019;-66
2022/12/26 09:55:33;;;;;;;7.15;0.75;;;;;;;-140.72;100.00;53255.34;5127205;27;20031;-66
2022/12/26 09:58:05;;;;;;;3.80;1.30;;;;;;;-140.72;100.00;53241.16;5125994;27;20344;-66
2022/12/26 10:00:44;;;;;;;2.05;0.60;;;;;;;-140.72;100.00;53269.56;5127339;27;20030;-65
2022/12/26 10:03:10;;;;;;;2.47;1.17;;;;;;;-140.72;100.00;53271.59;5126697;27;20433;-66
2022/12/26 10:05:54;;;;;;;0.90;0.57;;;;;;;-140.72;100.00;53226.94;5126124;27;20083;-67
2022/12/26 10:08:31;;;;;;;1.58;0.52;;;;;;;-140.72;100.00;53269.56;5125733;27;20030;-67
2022/12/26 10:11:11;;;;;;;4.47;1.30;;;;;;;-140.72;100.00;53261.44;5118847;27;20027;-66
2022/12/26 10:13:50;;;;;;;3.28;0.80;;;;;;;-140.72;100.00;53269.56;5125546;27;20041;-66
2022/12/26 10:16:43;;;;;;;7.37;1.67;;;;;;;-140.72;100.00;53273.63;5124727;27;20436;-65
2022/12/26 10:19:40;;;;;;;2.40;1.15;;;;;;;-140.72;100.00;53247.25;5118681;27;20019;-64
2022/12/26 10:22:31;;;;;;;0.75;0.40;;;;;;;-140.72;100.00;53263.47;5117312;27;20046;-64
2022/12/26 10:25:00;;;;;;;4.63;1.63;;;;;;;-140.72;100.00;53287.84;5122216;27;20019;-64
2022/12/26 10:27:30;;;;;;;0.60;0.50;;;;;;;-140.72;100.00;53304.06;5126041;27;20118;-65
2022/12/26 10:30:00;;;;;;;6.07;1.42;;;;;;;-140.72;100.00;53291.88;5119826;27;20027;-65
2022/12/26 10:33:01;;;;;;;3.05;1.00;;;;;;;-140.72;100.00;53261.44;5125967;27;20023;-66
2022/12/26 10:35:36;;;;;;;2.20;0.88;;;;;;;-140.72;100.00;53297.97;5111298;27;20087;-64
2022/12/26 10:38:44;;;;;;;6.03;1.00;;;;;;;-140.72;100.00;53212.75;5125957;27;20358;-64
2022/12/26 10:41:24;;;;;;;2.40;0.73;;;;;;;-140.72;100.00;53293.91;5126831;27;20089;-64
2022/12/26 10:43:50;;;;;;;0.68;0.50;;;;;;;-140.72;100.00;53289.88;5125557;27;20421;-63
2022/12/26 10:46:53;;;;;;;7.03;0.90;;;;;;;-140.72;100.00;53283.78;5126228;27;20102;-64
2022/12/26 10:49:21;;;;;;;3.78;0.90;;;;;;;-140.72;100.00;53279.72;5112833;27;20035;-63
2022/12/26 10:51:48;;;;;;;2.05;0.77;;;;;;;-140.72;100.00;53285.81;5118158;27;20043;-66
2022/12/26 10:54:17;;;;;;;0.93;0.52;;;;;;;-140.72;100.00;53269.56;5123471;27;20119;-64
2022/12/26 10:56:44;;;;;;;2.40;0.65;;;;;;;-140.72;100.00;53285.81;5118512;27;20042;-64
2022/12/26 10:59:18;;;;;;;0.93;0.60;;;;;;;-140.72;100.00;53259.41;5124103;27;20081;-64
2022/12/26 11:01:47;;;;;;;7.55;1.83;;;;;;;-140.72;100.00;53265.50;5124364;27;20044;-65
2022/12/26 11:04:15;;;;;;;6.97;1.08;;;;;;;-140.72;100.00;53261.44;5118126;27;20019;-64
2022/12/26 11:06:42;;;;;;;2.92;0.75;;;;;;;-140.72;100.00;53312.19;5123086;27;20019;-65
2022/12/26 11:09:39;;;;;;;0.75;0.60;;;;;;;-140.72;100.00;53267.53;5121917;27;20039;-64
2022/12/26 11:12:16;;;;;;;0.55;0.32;;;;;;;-140.72;100.00;53226.94;5114625;27;20023;-64
2022/12/26 11:14:43;;;;;;;4.95;0.70;;;;;;;-140.72;100.00;53226.94;5113549;27;20027;-66
2022/12/26 11:17:23;;;;;;;3.97;0.80;;;;;;;-140.72;100.00;53255.34;5124294;27;20019;-64
2022/12/26 11:20:20;;;;;;;2.90;0.80;;;;;;;-140.72;100.00;53269.56;5123115;27;20375;-65
2022/12/26 11:22:46;;;;;;;3.63;0.93;;;;;;;-140.72;100.00;53231.00;5122196;28;20038;-65
2022/12/26 11:25:19;;;;;;;3.90;1.00;;;;;;;-140.72;100.00;53255.34;5110900;28;20039;-65
2022/12/26 11:27:47;;;;;;;4.15;0.82;;;;;;;-140.72;100.00;53222.88;5123485;28;20459;-65
2022/12/26 11:30:13;;;;;;;3.15;0.93;;;;;;;-140.72;100.00;53255.34;5125616;28;20019;-64
2022/12/26 11:32:39;;;;;;;5.32;0.93;;;;;;;-140.72;100.00;53200.56;5120165;28;20057;-64
2022/12/26 11:35:05;;;;;;;4.20;1.10;;;;;;;-140.72;100.00;53190.41;5121890;28;20023;-63
2022/12/26 11:37:40;;;;;;;1.73;0.47;;;;;;;-140.72;100.00;53263.47;5125991;28;20070;-64
2022/12/26 11:40:16;;;;;;;2.03;0.77;;;;;;;-140.72;100.00;53239.13;5124353;28;20030;-64
2022/12/26 11:42:42;;;;;;;2.92;0.73;;;;;;;-140.72;100.00;53255.34;5123135;28;20029;-66
2022/12/26 11:45:10;;;;;;;0.88;0.63;;;;;;;-140.72;100.00;53200.56;5125613;28;20102;-65
2022/12/26 11:47:36;;;;;;;3.88;1.35;;;;;;;-140.72;100.00;53200.56;5119415;28;20467;-65
2022/12/26 11:50:09;;;;;;;3.72;1.02;;;;;;;-140.72;100.00;53218.81;5126669;28;20042;-65
2022/12/26 11:52:42;;;;;;;9.25;0.77;;;;;;;-140.72;100.00;53259.41;5123729;28;20088;-65
2022/12/26 11:55:29;;;;;;;0.80;0.63;;;;;;;-140.72;100.00;53279.72;5123051;27;20019;-64
2022/12/26 11:58:00;;;;;;;6.40;0.93;;;;;;;-140.72;100.00;53247.25;5121519;27;20039;-65
2022/12/26 12:00:26;;;;;;;1.30;0.43;;;;;;;-140.72;100.00;53216.78;5117100;27;20058;-65
2022/12/26 12:02:52;;;;;;;1.02;0.60;;;;;;;-140.72;100.00;53251.31;5125279;27;20090;-65
2022/12/26 12:05:47;;;;;;;3.28;0.80;;;;;;;-140.72;100.00;53271.59;5127389;27;20444;-65
2022/12/26 12:08:12;;;;;;;2.40;0.60;;;;;;;-140.72;100.00;53247.25;5129564;27;20053;-65
2022/12/26 12:10:59;;;;;;;1.27;0.50;;;;;;;-140.72;100.00;53243.19;5122013;27;20031;-66
2022/12/26 12:13:52;;;;;;;2.15;0.77;;;;;;;-140.72;100.00;53241.16;5122086;27;20020;-66
2022/12/26 12:16:33;;;;;;;2.70;0.70;;;;;;;-140.72;100.00;53291.88;5126833;27;20110;-65
2022/12/26 12:19:27;;;;;;;0.70;0.40;;;;;;;-140.72;100.00;53251.31;5127876;27;20038;-65
2022/12/26 12:22:20;;;;;;;0.88;0.63;;;;;;;-140.72;100.00;53226.94;5116339;27;20046;-65
2022/12/26 12:25:00;;;;;;;2.15;0.93;;;;;;;-140.72;100.00;53226.94;5121797;27;20576;-66
2022/12/26 12:27:34;;;;;;;4.20;0.52;;;;;;;-140.72;100.00;53233.03;5127102;27;20490;-66
2022/12/26 12:30:27;;;;;;;1.58;0.70;;;;;;;-140.72;100.00;53265.50;5123170;27;20363;-65
2022/12/26 12:33:11;;;;;;;4.55;0.60;;;;;;;-140.72;100.00;53249.28;5111491;27;20032;-65
2022/12/26 12:36:00;;;;;;;5.28;0.70;;;;;;;-140.72;100.00;53231.00;5127591;27;20152;-65
2022/12/26 12:38:40;;;;;;;0.73;0.35;;;;;;;-140.72;100.00;53259.41;5131084;27;20023;-66
2022/12/26 12:41:26;;;;;;;0.73;0.52;;;;;;;-140.72;100.00;53273.63;5125745;27;20126;-66
2022/12/26 12:44:01;;;;;;;3.20;0.57;;;;;;;-140.72;100.00;53231.00;5123460;27;20035;-65
2022/12/26 12:46:44;;;;;;;2.92;0.73;;;;;;;-140.72;100.00;53202.59;5125768;27;20167;-66
2022/12/26 12:49:23;;;;;;;1.90;0.60;;;;;;;-140.72;100.00;53210.72;5126715;27;20035;-66
2022/12/26 12:52:30;;;;;;;3.13;0.75;;;;;;;-140.72;100.00;53196.50;5128273;27;20030;-66
2022/12/26 12:55:54;;;;;;;2.30;0.57;;;;;;;-140.72;100.00;53147.78;5127464;27;20019;-66
2022/12/26 12:58:44;;;;;;;7.20;0.65;;;;;;;-140.72;100.00;53121.41;5101346;27;20032;-66
2022/12/26 13:01:23;;;;;;;6.32;0.57;;;;;;;-140.72;100.00;53202.59;5124261;27;20518;-66
2022/12/26 13:04:13;;;;;;;2.60;1.00;;;;;;;-140.72;100.00;53178.22;5117853;27;20504;-65
2022/12/26 13:06:51;;;;;;;3.38;0.75;;;;;;;-140.72;100.00;53231.00;5124253;27;20043;-65
2022/12/26 13:09:21;;;;;;;2.55;0.68;;;;;;;-140.72;100.00;53263.47;5125553;27;20118;-66
2022/12/26 13:12:01;;;;;;;1.70;0.93;;;;;;;-140.72;100.00;53257.38;5123648;27;20158;-67
2022/12/26 13:14:35;;;;;;;1.20;0.52;;;;;;;-140.72;100.00;53251.31;5126009;27;20053;-68
2022/12/26 13:17:10;;;;;;;2.00;0.98;;;;;;;-140.72;100.00;53231.00;5123405;27;20058;-65
2022/12/26 13:19:41;;;;;;;1.00;0.40;;;;;;;-140.72;100.00;53196.50;5124100;27;20052;-66
2022/12/26 13:22:15;;;;;;;2.80;0.52;;;;;;;-140.72;100.00;53247.25;5125372;27;20046;-66
2022/12/26 13:24:48;;;;;;;0.25;0.25;;;;;;;-140.72;100.00;53194.47;5125281;27;20063;-66
2022/12/26 13:27:35;;;;;;;1.60;0.70;;;;;;;-140.72;100.00;53235.06;5126458;27;20030;-66
2022/12/26 13:30:05;;;;;;;3.20;1.08;;;;;;;-140.72;100.00;53253.31;5123966;27;20420;-67